Time;durP1;ratioP1;P1;durP2;ratioP2;P2;SDS_P1;SDS_P2;PMS_P1;PMS_P2;Temp;Humidity;BMP_temperature;BMP_pressure;BME280_temperature;BME280_humidity;BME280_pressure;Samples;Min_cycle;Max_cycle;Signal;HPM_P1;HPM_P2
2023/07/11 00:01:20;;;;;;;;;;;;;;;17.60;81.69;98012.63;10328070;28;20016;-51
2023/07/11 00:06:19;;;;;;;;;;;;;;;17.54;82.18;98004.91;10327587;28;20332;-50
2023/07/11 00:11:18;;;;;;;;;;;;;;;17.49;81.77;97998.91;10328052;28;19952;-52
2023/07/11 00:16:17;;;;;;;;;;;;;;;17.50;81.83;98004.16;10327431;28;20059;-51
2023/07/11 00:21:16;;;;;;;;;;;;;;;17.47;81.67;97995.47;10326830;28;20023;-51
2023/07/11 00:26:15;;;;;;;;;;;;;;;17.43;81.18;98002.56;10326766;28;19920;-48
2023/07/11 00:31:14;;;;;;;;;;;;;;;17.39;81.50;98000.06;10326993;28;19944;-50
2023/07/11 00:36:13;;;;;;;;;;;;;;;17.38;81.60;98019.31;10325793;28;19999;-49
2023/07/11 00:41:12;;;;;;;;;;;;;;;17.38;82.02;98016.69;10326428;28;19917;-51
2023/07/11 00:46:14;;;;;;;;;;;;;;;17.21;83.38;98009.22;10326121;28;19913;-51
2023/07/11 00:51:18;;;;;;;;;;;;;;;17.22;83.28;98003.09;10326065;28;19999;-50
2023/07/11 00:56:19;;;;;;;;;;;;;;;17.11;83.80;98005.97;10325255;28;20713;-49
2023/07/11 01:01:18;;;;;;;;;;;;;;;16.91;84.79;98004.66;10325459;28;20060;-51
2023/07/11 01:06:18;;;;;;;;;;;;;;;16.96;84.19;98007.19;10325435;28;19924;-51
2023/07/11 01:11:17;;;;;;;;;;;;;;;16.92;84.02;98001.13;10326341;28;20001;-51
2023/07/11 01:16:16;;;;;;;;;;;;;;;16.86;84.19;97984.69;10325162;28;20035;-52
2023/07/11 01:21:18;;;;;;;;;;;;;;;16.84;84.33;97982.09;10325851;28;19963;-49
2023/07/11 01:26:17;;;;;;;;;;;;;;;16.80;84.67;97977.78;10324736;28;20028;-50
2023/07/11 01:31:15;;;;;;;;;;;;;;;16.69;85.17;97985.03;10324440;28;20019;-50
2023/07/11 01:36:14;;;;;;;;;;;;;;;16.63;85.54;97978.16;10325139;28;20024;-53
2023/07/11 01:41:13;;;;;;;;;;;;;;;16.65;85.38;97980.75;10322722;28;19921;-51
2023/07/11 01:46:12;;;;;;;;;;;;;;;16.66;85.21;97965.00;10323798;28;19953;-51
2023/07/11 01:51:11;;;;;;;;;;;;;;;16.65;85.36;97965.00;10324409;28;19913;-49
2023/07/11 01:56:10;;;;;;;;;;;;;;;16.65;85.40;97968.53;10323365;28;19916;-49
2023/07/11 02:01:08;;;;;;;;;;;;;;;16.67;85.55;97971.09;10324929;28;20339;-50
2023/07/11 02:06:07;;;;;;;;;;;;;;;16.64;85.40;97964.16;10323578;28;19956;-53
2023/07/11 02:11:06;;;;;;;;;;;;;;;16.63;85.64;97972.94;10327182;28;19987;-52
2023/07/11 02:16:04;;;;;;;;;;;;;;;16.59;85.75;97970.41;10331260;28;20014;-49
2023/07/11 02:21:03;;;;;;;;;;;;;;;16.52;85.91;97967.91;10331527;28;19917;-52
2023/07/11 02:26:02;;;;;;;;;;;;;;;16.50;85.77;97956.59;10331360;28;20006;-52
2023/07/11 02:31:01;;;;;;;;;;;;;;;16.54;85.90;97957.41;10331376;28;20416;-51
2023/07/11 02:35:59;;;;;;;;;;;;;;;16.24;86.77;97958.91;10331525;28;19921;-50
2023/07/11 02:40:58;;;;;;;;;;;;;;;16.11;87.47;97955.66;10330806;28;19963;-52
2023/07/11 02:45:57;;;;;;;;;;;;;;;16.08;87.27;97956.59;10330083;28;20011;-50
2023/07/11 02:50:55;;;;;;;;;;;;;;;16.09;87.06;97949.59;10330924;28;19923;-51
2023/07/11 02:55:54;;;;;;;;;;;;;;;16.10;87.26;97946.09;10328771;28;20021;-50
2023/07/11 03:00:54;;;;;;;;;;;;;;;16.19;87.01;97950.31;10330176;28;19913;-50
2023/07/11 03:05:54;;;;;;;;;;;;;;;16.23;86.87;97944.09;10330775;28;19967;-52
2023/07/11 03:10:56;;;;;;;;;;;;;;;16.30;86.79;97943.06;10330492;28;20383;-52
2023/07/11 03:15:55;;;;;;;;;;;;;;;16.26;87.08;97955.38;10329000;28;20016;-51
2023/07/11 03:20:56;;;;;;;;;;;;;;;16.29;87.05;97954.44;10328761;28;20447;-51
2023/07/11 03:25:55;;;;;;;;;;;;;;;16.34;87.12;97947.34;10328352;28;19952;-49
2023/07/11 03:30:54;;;;;;;;;;;;;;;16.38;87.08;97951.63;10328585;28;19960;-48
2023/07/11 03:35:53;;;;;;;;;;;;;;;16.43;86.68;97948.91;10328546;28;19964;-49
2023/07/11 03:40:52;;;;;;;;;;;;;;;16.46;86.83;97948.84;10328519;28;19921;-48
2023/07/11 03:45:51;;;;;;;;;;;;;;;16.49;86.66;97965.38;10327592;28;20003;-50
2023/07/11 03:50:50;;;;;;;;;;;;;;;16.33;86.59;97956.09;10328529;28;20022;-48
2023/07/11 03:55:48;;;;;;;;;;;;;;;16.29;86.80;97957.91;10326846;28;19960;-51
2023/07/11 04:00:47;;;;;;;;;;;;;;;16.44;86.44;97951.50;10327575;28;20036;-51
2023/07/11 04:05:46;;;;;;;;;;;;;;;16.38;86.73;97956.88;10327849;28;19915;-48
2023/07/11 04:10:44;;;;;;;;;;;;;;;16.34;87.31;97957.81;10327282;28;19999;-49
2023/07/11 04:15:43;;;;;;;;;;;;;;;16.48;87.22;97957.53;10326557;28;21840;-48
2023/07/11 04:20:42;;;;;;;;;;;;;;;16.74;86.50;97959.56;10326876;28;19917;-50
2023/07/11 04:25:41;;;;;;;;;;;;;;;16.88;85.66;97954.91;10326328;28;19928;-51
2023/07/11 04:30:39;;;;;;;;;;;;;;;17.13;84.81;97954.34;10326333;28;20339;-51
2023/07/11 04:35:39;;;;;;;;;;;;;;;17.28;83.78;97972.31;10325733;28;19967;-48
2023/07/11 04:40:39;;;;;;;;;;;;;;;17.32;84.12;97960.84;10326220;28;19952;-50
2023/07/11 04:45:37;;;;;;;;;;;;;;;17.56;83.40;97967.22;10326575;28;19967;-49
2023/07/11 04:50:36;;;;;;;;;;;;;;;17.28;82.60;97882.28;10323967;28;19917;-51
2023/07/11 04:55:35;;;;;;;;;;;;;;;17.89;82.99;97979.56;10325580;28;20031;-52
2023/07/11 05:00:34;;;;;;;;;;;;;;;18.03;83.26;97971.31;10324815;28;19935;-49
2023/07/11 05:05:34;;;;;;;;;;;;;;;18.09;82.86;97979.88;10325132;28;19916;-50
2023/07/11 05:10:33;;;;;;;;;;;;;;;18.21;82.72;97964.69;10326178;28;20391;-52
2023/07/11 05:15:31;;;;;;;;;;;;;;;18.39;82.32;97967.66;10324588;28;20376;-49
2023/07/11 05:20:30;;;;;;;;;;;;;;;18.74;80.71;97964.91;10324278;28;19921;-50
2023/07/11 05:25:29;;;;;;;;;;;;;;;18.74;81.45;97959.66;10324688;28;19935;-52
2023/07/11 05:30:28;;;;;;;;;;;;;;;18.88;80.45;97964.47;10323820;28;20319;-51
2023/07/11 05:35:26;;;;;;;;;;;;;;;19.01;80.55;97971.06;10324537;28;19913;-51
2023/07/11 05:40:25;;;;;;;;;;;;;;;19.06;79.61;97971.78;10324287;28;19931;-49
2023/07/11 05:45:24;;;;;;;;;;;;;;;19.28;76.34;97977.22;10323671;28;19952;-51
2023/07/11 05:50:22;;;;;;;;;;;;;;;19.52;76.38;97962.38;10324048;28;19928;-51
2023/07/11 05:55:21;;;;;;;;;;;;;;;20.00;76.01;97953.75;10324008;28;20340;-52
2023/07/11 06:00:20;;;;;;;;;;;;;;;20.42;73.95;97960.13;10323987;28;20474;-49
2023/07/11 06:05:19;;;;;;;;;;;;;;;20.63;71.79;97964.63;10324039;28;19912;-52
2023/07/11 06:10:18;;;;;;;;;;;;;;;20.54;70.59;97964.97;10323544;28;19923;-49
2023/07/11 06:15:17;;;;;;;;;;;;;;;20.54;71.56;97962.34;10323495;28;20443;-49
2023/07/11 06:20:16;;;;;;;;;;;;;;;20.41;71.22;97961.06;10323452;28;20430;-49
2023/07/11 06:25:14;;;;;;;;;;;;;;;20.57;70.34;97964.00;10323320;28;19913;-52
2023/07/11 06:30:14;;;;;;;;;;;;;;;20.70;70.91;97967.84;10317799;28;19919;-50
2023/07/11 06:35:12;;;;;;;;;;;;;;;21.08;69.65;97961.09;10323089;28;20028;-50
2023/07/11 06:40:11;;;;;;;;;;;;;;;21.53;66.78;97949.59;10323784;28;19916;-52
2023/07/11 06:45:10;;;;;;;;;;;;;;;22.12;66.17;97949.75;10322769;28;20006;-52
2023/07/11 06:50:09;;;;;;;;;;;;;;;22.35;62.69;97954.00;10323513;28;20416;-52
2023/07/11 06:55:08;;;;;;;;;;;;;;;22.28;61.46;97945.47;10322373;28;20403;-51
2023/07/11 07:00:08;;;;;;;;;;;;;;;22.49;61.11;97941.00;10330357;28;20018;-50
2023/07/11 07:05:07;;;;;;;;;;;;;;;22.74;60.13;97938.09;10330732;28;19964;-49
2023/07/11 07:10:06;;;;;;;;;;;;;;;22.87;59.54;97934.84;10329987;28;19913;-48
2023/07/11 07:15:05;;;;;;;;;;;;;;;22.99;59.32;97936.91;10329717;28;19960;-51
2023/07/11 07:20:04;;;;;;;;;;;;;;;23.23;59.46;97943.66;10329241;28;20007;-53
2023/07/11 07:25:03;;;;;;;;;;;;;;;23.46;58.16;97941.66;10327703;28;19952;-49
2023/07/11 07:30:03;;;;;;;;;;;;;;;23.60;58.15;97933.88;10327234;28;20470;-49
2023/07/11 07:35:02;;;;;;;;;;;;;;;23.78;56.64;97926.78;10328088;28;19968;-49
2023/07/11 07:40:01;;;;;;;;;;;;;;;23.97;55.85;97924.03;10328751;28;19927;-48
2023/07/11 07:45:00;;;;;;;;;;;;;;;24.31;56.46;97922.28;10327191;28;19921;-48
2023/07/11 07:49:58;;;;;;;;;;;;;;;24.69;55.83;97921.97;10328312;28;20482;-49
2023/07/11 07:54:57;;;;;;;;;;;;;;;24.95;57.41;97917.03;10328659;28;19913;-48
2023/07/11 07:59:56;;;;;;;;;;;;;;;25.09;54.43;97919.75;10327703;28;19968;-49
2023/07/11 08:04:54;;;;;;;;;;;;;;;25.36;54.60;97911.13;10326964;28;19970;-49
2023/07/11 08:09:55;;;;;;;;;;;;;;;25.65;53.33;97912.94;10326715;28;19971;-51
2023/07/11 08:14:54;;;;;;;;;;;;;;;25.92;54.19;97904.25;10326615;28;19956;-51
2023/07/11 08:19:52;;;;;;;;;;;;;;;26.24;52.57;97904.09;10326951;28;19916;-50
2023/07/11 08:24:51;;;;;;;;;;;;;;;26.48;52.61;97901.69;10325213;28;20004;-52
2023/07/11 08:29:50;;;;;;;;;;;;;;;26.85;51.75;97902.88;10326196;28;20297;-52
2023/07/11 08:34:48;;;;;;;;;;;;;;;27.16;51.98;97892.88;10326376;28;19913;-51
2023/07/11 08:39:48;;;;;;;;;;;;;;;27.66;49.72;97901.97;10326761;28;19921;-52
2023/07/11 08:44:53;;;;;;;;;;;;;;;28.29;49.37;97889.63;10325926;28;19972;-52
2023/07/11 08:50:10;;;;;;;;;;;;;;;29.07;47.23;97891.97;10325896;28;20000;-53
2023/07/11 08:55:12;;;;;;;;;;;;;;;29.63;47.00;97886.00;10325499;28;19952;-52
2023/07/11 09:00:14;;;;;;;;;;;;;;;30.32;44.77;97887.78;10326163;28;20043;-52
2023/07/11 09:05:21;;;;;;;;;;;;;;;30.90;43.21;97898.34;10325490;28;19960;-52
2023/07/11 09:10:29;;;;;;;;;;;;;;;30.78;42.24;97894.00;10325013;28;19948;-50
2023/07/11 09:15:47;;;;;;;;;;;;;;;30.95;43.00;97880.94;10319971;28;20040;-51
2023/07/11 09:20:51;;;;;;;;;;;;;;;30.88;38.02;97877.03;10327777;28;19959;-53
2023/07/11 09:25:51;;;;;;;;;;;;;;;30.88;37.32;97881.53;10324469;28;19960;-51
2023/07/11 09:30:57;;;;;;;;;;;;;;;30.87;37.81;97879.84;10325642;28;19955;-53
2023/07/11 09:35:57;;;;;;;;;;;;;;;30.73;37.60;97873.78;10327030;28;20003;-52
2023/07/11 09:41:02;;;;;;;;;;;;;;;30.79;36.98;97861.69;10327383;28;20336;-52
2023/07/11 09:46:01;;;;;;;;;;;;;;;30.68;36.53;97865.28;10327264;28;19949;-52
2023/07/11 09:51:02;;;;;;;;;;;;;;;30.48;36.75;97863.34;10327684;28;19924;-53
2023/07/11 09:56:03;;;;;;;;;;;;;;;30.58;37.76;97852.75;10326600;28;20435;-52
2023/07/11 10:01:03;;;;;;;;;;;;;;;30.97;37.77;97848.66;10327482;28;19983;-52
2023/07/11 10:06:03;;;;;;;;;;;;;;;31.25;38.82;97847.19;10326710;28;19952;-51
2023/07/11 10:11:04;;;;;;;;;;;;;;;31.47;37.24;97848.88;10326661;28;20716;-52
2023/07/11 10:16:04;;;;;;;;;;;;;;;31.59;36.35;97849.69;10319823;28;20000;-51
2023/07/11 10:21:05;;;;;;;;;;;;;;;31.58;36.48;97854.22;10326091;28;19992;-51
2023/07/11 10:26:15;;;;;;;;;;;;;;;31.67;37.00;97836.50;10325379;28;19964;-51
2023/07/11 10:31:16;;;;;;;;;;;;;;;31.91;36.07;97838.03;10328062;28;19960;-52
2023/07/11 10:36:20;;;;;;;;;;;;;;;32.06;35.77;97835.84;10334385;28;20000;-50
2023/07/11 10:41:22;;;;;;;;;;;;;;;32.08;36.71;97831.22;10334534;28;19999;-53
2023/07/11 10:46:26;;;;;;;;;;;;;;;32.28;36.20;97826.78;10333793;28;20381;-51
2023/07/11 10:51:36;;;;;;;;;;;;;;;32.43;35.71;97823.56;10334059;28;19963;-51
2023/07/11 10:56:42;;;;;;;;;;;;;;;32.61;35.23;97812.19;10333145;28;20007;-54
2023/07/11 11:01:48;;;;;;;;;;;;;;;32.23;34.40;97819.13;10333054;28;19959;-52
2023/07/11 11:06:56;;;;;;;;;;;;;;;32.35;34.87;97818.03;10332368;28;19959;-53
2023/07/11 11:12:02;;;;;;;;;;;;;;;32.44;35.77;97808.31;10331472;28;19956;-53
2023/07/11 11:17:24;;;;;;;;;;;;;;;32.79;35.94;97804.28;10318728;28;19996;-50
2023/07/11 11:22:34;;;;;;;;;;;;;;;33.21;34.27;97799.50;10330456;28;19948;-51
2023/07/11 11:27:33;;;;;;;;;;;;;;;33.20;33.77;97797.78;10331780;28;20008;-50
2023/07/11 11:32:32;;;;;;;;;;;;;;;33.58;33.15;97793.34;10332202;28;19971;-51
2023/07/11 11:37:34;;;;;;;;;;;;;;;33.94;32.70;97798.06;10331866;28;20036;-53
2023/07/11 11:42:34;;;;;;;;;;;;;;;33.58;33.20;97785.28;10330947;28;19948;-54
2023/07/11 11:47:35;;;;;;;;;;;;;;;33.45;33.67;97793.63;10331010;28;20385;-51
2023/07/11 11:52:34;;;;;;;;;;;;;;;32.84;34.48;97783.22;10329471;28;19964;-53
2023/07/11 11:57:35;;;;;;;;;;;;;;;32.70;34.32;97781.78;10329830;28;19917;-53
2023/07/11 12:02:37;;;;;;;;;;;;;;;33.02;34.81;97765.38;10330173;28;19952;-52
2023/07/11 12:07:37;;;;;;;;;;;;;;;33.30;33.90;97757.41;10329917;28;20027;-51
2023/07/11 12:12:35;;;;;;;;;;;;;;;33.80;35.24;97753.63;10328979;28;19949;-53
2023/07/11 12:17:34;;;;;;;;;;;;;;;34.07;33.76;97753.66;10328127;28;19917;-52
2023/07/11 12:22:39;;;;;;;;;;;;;;;34.40;33.86;97750.47;10327871;28;20007;-53
2023/07/11 12:27:37;;;;;;;;;;;;;;;34.91;33.44;97738.19;10328740;28;19996;-51
2023/07/11 12:32:39;;;;;;;;;;;;;;;35.19;32.95;97735.41;10328904;28;19912;-51
2023/07/11 12:37:50;;;;;;;;;;;;;;;34.85;30.65;97728.91;10328615;28;19968;-53
2023/07/11 12:42:54;;;;;;;;;;;;;;;34.76;31.65;97731.69;10330278;28;19956;-52
2023/07/11 12:48:12;;;;;;;;;;;;;;;34.55;31.24;97727.41;10328889;28;19964;-52
2023/07/11 12:53:12;;;;;;;;;;;;;;;34.31;30.66;97728.03;10327660;28;19952;-52
2023/07/11 12:58:30;;;;;;;;;;;;;;;34.47;31.39;97725.50;10326530;28;20015;-53
2023/07/11 13:03:33;;;;;;;;;;;;;;;34.29;31.56;97727.31;10326737;28;19999;-52
2023/07/11 13:08:33;;;;;;;;;;;;;;;34.40;32.05;97719.03;10326970;28;20321;-53
2023/07/11 13:13:33;;;;;;;;;;;;;;;34.70;30.61;97717.78;10327122;28;19982;-51
2023/07/11 13:18:35;;;;;;;;;;;;;;;34.91;30.21;97708.53;10326865;28;21531;-53
2023/07/11 13:23:35;;;;;;;;;;;;;;;34.54;30.18;97714.09;10328394;28;20737;-53
2023/07/11 13:28:36;;;;;;;;;;;;;;;34.74;31.24;97699.47;10328199;28;19956;-51
2023/07/11 13:33:36;;;;;;;;;;;;;;;34.92;30.93;97700.31;10328008;28;19952;-52
2023/07/11 13:38:44;;;;;;;;;;;;;;;35.02;30.29;97699.38;10328198;28;20011;-52
2023/07/11 13:43:45;;;;;;;;;;;;;;;35.08;30.43;97702.28;10327290;28;20360;-52
2023/07/11 13:48:45;;;;;;;;;;;;;;;35.17;29.56;97696.97;10317051;28;20007;-51
2023/07/11 13:53:49;;;;;;;;;;;;;;;35.17;29.58;97705.88;10327004;28;19955;-51
2023/07/11 13:58:50;;;;;;;;;;;;;;;35.20;30.42;97707.44;10326859;28;20001;-52
2023/07/11 14:03:51;;;;;;;;;;;;;;;35.10;30.72;97712.91;10327818;28;20008;-51
2023/07/11 14:08:49;;;;;;;;;;;;;;;35.05;31.80;97707.13;10331190;28;19974;-51
2023/07/11 14:13:48;;;;;;;;;;;;;;;34.97;31.00;97709.78;10334691;28;19913;-51
2023/07/11 14:18:48;;;;;;;;;;;;;;;35.05;31.97;97717.91;10336315;28;20604;-52
2023/07/11 14:23:47;;;;;;;;;;;;;;;34.89;31.74;97715.94;10337181;28;19959;-51
2023/07/11 14:28:46;;;;;;;;;;;;;;;35.18;30.84;97710.28;10337736;28;19979;-53
2023/07/11 14:33:44;;;;;;;;;;;;;;;35.55;29.55;97706.47;10337841;28;19971;-53
2023/07/11 14:38:43;;;;;;;;;;;;;;;35.62;28.60;97699.47;10337131;28;19924;-53
2023/07/11 14:43:42;;;;;;;;;;;;;;;35.29;28.41;97701.94;10337145;28;20394;-52
2023/07/11 14:48:40;;;;;;;;;;;;;;;35.41;29.58;97697.13;10337046;28;19935;-53
2023/07/11 14:53:42;;;;;;;;;;;;;;;35.48;28.01;97691.91;10330950;28;19912;-53
2023/07/11 14:58:48;;;;;;;;;;;;;;;35.30;28.57;97687.44;10323503;28;19979;-51
2023/07/11 15:03:46;;;;;;;;;;;;;;;35.12;28.75;97687.47;10330159;28;19956;-51
2023/07/11 15:08:45;;;;;;;;;;;;;;;35.00;29.73;97688.72;10327303;28;19952;-50
2023/07/11 15:13:44;;;;;;;;;;;;;;;34.98;30.61;97679.09;10334532;28;19994;-50
2023/07/11 15:18:43;;;;;;;;;;;;;;;35.08;30.16;97680.72;10294115;28;20008;-52
2023/07/11 15:23:41;;;;;;;;;;;;;;;35.27;30.45;97682.38;10289165;28;19997;-50
2023/07/11 15:28:40;;;;;;;;;;;;;;;35.10;30.52;97677.88;10291313;28;20039;-51
2023/07/11 15:33:43;;;;;;;;;;;;;;;35.25;30.00;97676.28;10314905;28;20055;-52
2023/07/11 15:38:41;;;;;;;;;;;;;;;35.13;30.17;97688.34;10314335;28;20148;-51
2023/07/11 15:43:42;;;;;;;;;;;;;;;35.14;31.33;97679.25;10328184;28;20099;-51
2023/07/11 15:48:42;;;;;;;;;;;;;;;34.98;31.29;97679.94;10328645;28;20368;-52
2023/07/11 15:53:40;;;;;;;;;;;;;;;34.95;31.68;97676.72;10328201;28;20120;-51
2023/07/11 15:58:39;;;;;;;;;;;;;;;34.56;31.62;97688.66;10319023;28;20106;-52
2023/07/11 16:03:38;;;;;;;;;;;;;;;34.21;31.73;97681.44;10286980;28;20408;-52
2023/07/11 16:08:37;;;;;;;;;;;;;;;34.18;32.41;97687.97;10310484;28;20292;-52
2023/07/11 16:13:36;;;;;;;;;;;;;;;34.13;32.93;97689.44;10285746;28;20393;-52
2023/07/11 16:18:35;;;;;;;;;;;;;;;34.05;32.83;97698.22;10295878;28;20297;-52
2023/07/11 16:23:33;;;;;;;;;;;;;;;33.99;33.20;97694.31;10326751;28;19956;-52
2023/07/11 16:28:34;;;;;;;;;;;;;;;33.88;34.33;97703.41;10305739;28;19921;-52
2023/07/11 16:33:33;;;;;;;;;;;;;;;33.47;33.73;97685.91;10324980;28;20373;-52
2023/07/11 16:38:33;;;;;;;;;;;;;;;33.46;34.20;97705.69;10327057;28;20351;-52
2023/07/11 16:43:32;;;;;;;;;;;;;;;33.13;33.91;97701.69;10325957;28;19941;-50
2023/07/11 16:48:31;;;;;;;;;;;;;;;32.89;35.50;97702.16;10325496;28;19921;-52
2023/07/11 16:53:33;;;;;;;;;;;;;;;32.63;36.16;97708.94;10326077;28;19952;-52
2023/07/11 16:58:37;;;;;;;;;;;;;;;32.37;36.42;97710.47;10305012;28;20013;-52
2023/07/11 17:03:36;;;;;;;;;;;;;;;32.20;36.80;97706.59;10320554;28;19944;-51
2023/07/11 17:08:35;;;;;;;;;;;;;;;32.04;37.16;97708.94;10325104;28;19952;-52
2023/07/11 17:13:34;;;;;;;;;;;;;;;31.82;38.18;97716.22;10324399;28;19920;-52
2023/07/11 17:18:33;;;;;;;;;;;;;;;31.54;38.30;97717.81;10294139;28;20015;-52
2023/07/11 17:23:32;;;;;;;;;;;;;;;31.23;38.32;97719.63;10284615;28;20015;-53
2023/07/11 17:28:31;;;;;;;;;;;;;;;30.90;38.49;97719.66;10284266;28;20312;-52
2023/07/11 17:33:30;;;;;;;;;;;;;;;30.21;39.13;97730.75;10284123;28;20323;-52
2023/07/11 17:38:29;;;;;;;;;;;;;;;29.78;39.62;97736.84;10294446;28;19949;-51
2023/07/11 17:43:28;;;;;;;;;;;;;;;29.02;41.48;97738.31;10281459;28;20016;-51
2023/07/11 17:48:27;;;;;;;;;;;;;;;28.70;41.24;97732.75;10284451;28;19980;-51
2023/07/11 17:53:26;;;;;;;;;;;;;;;28.56;41.21;97737.25;10289286;28;20016;-53
2023/07/11 17:58:26;;;;;;;;;;;;;;;28.54;41.33;97735.69;10285599;28;19997;-51
2023/07/11 18:03:26;;;;;;;;;;;;;;;28.36;41.79;97741.44;10289070;28;20008;-51
2023/07/11 18:08:25;;;;;;;;;;;;;;;28.17;42.38;97739.28;10285109;28;20009;-53
2023/07/11 18:13:24;;;;;;;;;;;;;;;27.99;41.87;97753.91;10283514;28;20387;-51
2023/07/11 18:18:24;;;;;;;;;;;;;;;27.88;42.58;97759.16;10283550;28;20382;-52
2023/07/11 18:23:23;;;;;;;;;;;;;;;27.72;42.31;97762.91;10283502;28;19976;-50
2023/07/11 18:28:22;;;;;;;;;;;;;;;27.62;43.73;97762.69;10283195;28;20028;-52
2023/07/11 18:33:21;;;;;;;;;;;;;;;27.46;44.21;97769.19;10284437;28;20366;-52
2023/07/11 18:38:21;;;;;;;;;;;;;;;27.29;45.27;97775.69;10285212;28;20325;-52
2023/07/11 18:43:20;;;;;;;;;;;;;;;26.99;46.07;97788.31;10283502;28;19945;-51
2023/07/11 18:48:18;;;;;;;;;;;;;;;26.68;47.65;97799.28;10288856;28;20487;-49
2023/07/11 18:53:17;;;;;;;;;;;;;;;26.44;47.94;97801.72;10288351;28;19921;-51
2023/07/11 18:58:16;;;;;;;;;;;;;;;26.23;48.43;97801.28;10296691;28;19924;-50
2023/07/11 19:03:16;;;;;;;;;;;;;;;26.04;48.88;97804.22;10298173;28;19925;-50
2023/07/11 19:08:16;;;;;;;;;;;;;;;25.85;49.09;97804.53;10299012;28;20004;-53
2023/07/11 19:13:15;;;;;;;;;;;;;;;25.66;49.73;97813.66;10291778;28;19960;-53
2023/07/11 19:18:20;;;;;;;;;;;;;;;25.52;49.88;97822.44;10297982;28;19923;-49
2023/07/11 19:23:19;;;;;;;;;;;;;;;25.31;50.59;97819.25;10293056;28;19960;-52
2023/07/11 19:28:19;;;;;;;;;;;;;;;25.04;51.29;97823.56;10291942;28;19917;-50
2023/07/11 19:33:18;;;;;;;;;;;;;;;24.91;51.69;97820.78;10291660;28;19984;-52
2023/07/11 19:38:18;;;;;;;;;;;;;;;24.75;51.94;97825.22;10293163;28;19975;-53
2023/07/11 19:43:17;;;;;;;;;;;;;;;24.61;52.09;97831.31;10291663;28;20393;-52
2023/07/11 19:48:17;;;;;;;;;;;;;;;24.45;53.19;97834.84;10290793;28;20420;-48
2023/07/11 19:53:20;;;;;;;;;;;;;;;24.27;54.09;97841.16;10290443;28;20451;-51
2023/07/11 19:58:22;;;;;;;;;;;;;;;24.15;54.93;97839.16;10310429;28;20432;-51
2023/07/11 20:03:20;;;;;;;;;;;;;;;23.49;55.46;97755.25;10329164;28;19959;-49
2023/07/11 20:08:21;;;;;;;;;;;;;;;23.87;56.39;97845.13;10331322;28;19948;-50
2023/07/11 20:13:21;;;;;;;;;;;;;;;23.70;57.33;97851.28;10330819;28;19956;-49
2023/07/11 20:18:21;;;;;;;;;;;;;;;23.57;57.88;97841.34;10329777;28;19960;-50
2023/07/11 20:23:20;;;;;;;;;;;;;;;23.50;58.52;97839.94;10326523;28;19960;-51
2023/07/11 20:28:20;;;;;;;;;;;;;;;23.37;59.01;97844.13;10327521;28;20395;-50
2023/07/11 20:33:20;;;;;;;;;;;;;;;23.27;60.38;97854.34;10326710;28;19963;-50
2023/07/11 20:38:21;;;;;;;;;;;;;;;23.16;61.01;97851.38;10285696;28;19952;-51
2023/07/11 20:43:20;;;;;;;;;;;;;;;23.06;63.14;97861.56;10285523;28;19971;-51
2023/07/11 20:48:20;;;;;;;;;;;;;;;23.02;63.61;97860.88;10285803;28;19917;-49
2023/07/11 20:53:21;;;;;;;;;;;;;;;22.45;63.29;97775.47;10285541;28;19976;-49
2023/07/11 20:58:21;;;;;;;;;;;;;;;22.86;64.12;97867.84;10286650;28;19976;-51
2023/07/11 21:03:19;;;;;;;;;;;;;;;22.82;64.66;97868.94;10285660;28;20025;-51
2023/07/11 21:08:23;;;;;;;;;;;;;;;22.71;65.23;97874.69;10285134;28;20029;-51
2023/07/11 21:13:22;;;;;;;;;;;;;;;22.62;67.01;97877.78;10284993;28;19968;-49
2023/07/11 21:18:22;;;;;;;;;;;;;;;22.52;67.19;97866.78;10284995;28;20429;-51
2023/07/11 21:23:21;;;;;;;;;;;;;;;22.30;70.54;97877.53;10285386;28;19987;-50
2023/07/11 21:28:26;;;;;;;;;;;;;;;22.27;70.57;97877.69;10302447;28;20077;-50
2023/07/11 21:33:25;;;;;;;;;;;;;;;22.12;71.41;97884.50;10325016;28;19956;-51
2023/07/11 21:38:25;;;;;;;;;;;;;;;21.94;73.61;97874.75;10322429;28;19917;-51
2023/07/11 21:43:24;;;;;;;;;;;;;;;21.81;73.49;97884.16;10323871;28;19963;-50
2023/07/11 21:48:24;;;;;;;;;;;;;;;21.69;74.03;97880.28;10323953;28;19913;-52
2023/07/11 21:53:24;;;;;;;;;;;;;;;21.58;74.83;97883.38;10322076;28;19956;-51
2023/07/11 21:58:24;;;;;;;;;;;;;;;21.48;75.03;97877.63;10324944;28;20373;-49
2023/07/11 22:03:24;;;;;;;;;;;;;;;21.31;76.96;97869.56;10323339;28;19992;-51
2023/07/11 22:08:25;;;;;;;;;;;;;;;21.26;76.56;97876.81;10323461;28;19943;-50
2023/07/11 22:13:25;;;;;;;;;;;;;;;21.26;76.90;97872.41;10325020;28;20631;-51
2023/07/11 22:18:26;;;;;;;;;;;;;;;21.12;77.61;97874.72;10324871;28;20008;-50
2023/07/11 22:23:24;;;;;;;;;;;;;;;21.08;77.96;97876.66;10323515;28;19955;-51
2023/07/11 22:28:24;;;;;;;;;;;;;;;21.08;78.23;97868.75;10330604;28;19913;-52
2023/07/11 22:33:22;;;;;;;;;;;;;;;21.07;78.84;97871.44;10335020;28;19959;-49
2023/07/11 22:38:21;;;;;;;;;;;;;;;21.01;79.50;97863.75;10334940;28;19956;-49
2023/07/11 22:43:21;;;;;;;;;;;;;;;20.88;79.85;97864.28;10334907;28;19956;-50
2023/07/11 22:48:22;;;;;;;;;;;;;;;20.81;80.77;97869.88;10334357;28;20388;-52
2023/07/11 22:53:28;;;;;;;;;;;;;;;20.80;80.56;97863.75;10333919;28;20308;-52
2023/07/11 22:58:35;;;;;;;;;;;;;;;20.78;80.87;97870.00;10333448;28;19971;-51
2023/07/11 23:03:33;;;;;;;;;;;;;;;20.73;80.64;97861.38;10334181;28;20276;-52
2023/07/11 23:08:32;;;;;;;;;;;;;;;20.65;81.67;97870.47;10333820;28;19956;-50
2023/07/11 23:13:31;;;;;;;;;;;;;;;20.65;81.23;97862.56;10333425;28;19913;-49
2023/07/11 23:18:30;;;;;;;;;;;;;;;20.55;81.64;97869.13;10332127;28;20470;-51
2023/07/11 23:23:30;;;;;;;;;;;;;;;20.52;82.11;97864.00;10329867;28;19957;-50
2023/07/11 23:28:30;;;;;;;;;;;;;;;20.49;82.10;97859.69;10327178;28;20039;-49
2023/07/11 23:33:29;;;;;;;;;;;;;;;20.45;82.94;97855.47;10288547;28;19992;-48
2023/07/11 23:38:28;;;;;;;;;;;;;;;20.31;83.67;97854.25;10302654;28;19924;-49
2023/07/11 23:43:33;;;;;;;;;;;;;;;20.24;83.64;97838.66;10309804;28;19991;-50
2023/07/11 23:48:32;;;;;;;;;;;;;;;20.15;83.84;97841.66;10287942;28;19960;-49
2023/07/11 23:53:31;;;;;;;;;;;;;;;20.11;84.08;97847.94;10295851;28;19920;-51
2023/07/11 23:58:31;;;;;;;;;;;;;;;20.15;83.88;97848.72;10325421;28;19931;-51
